Quincy, WA

2:00 PM PDT en Septiembre 01, 2014 (GMT -0700)
Winchester | Change Station
CLOSE
Current Station
Estación meteorológica personal
Location: Quincy, WA
Altura: 1350 ft
Estaciones meteorológicas cercanas

Alt 1350 ft 47.26 °N, 119.72 °W | Updated 3 seconds ago

Despejado
Despejado
71.6 ° F
Sensación térmica 77 ° F
N
5.0
Viento Variable Viento desde Sur
Gusts 8.0 mph

Hoy
Alta -- | Baja -- ° F
--% Posibilidad de precipitaciones
Ayer
Alta -- | Baja -- ° F
Precip. -- pul
6:18 AM 7:39 PM
Creciente, 44% visible
Presión 29.97 pul
Visibilidad 10.0 Millas
Nubes Despejado
Índice de calor 77 ° F
Punto de rocío 47 ° F
Humedad 42%
Precipitaciones -999.00 pul
Espesor de la nieve 0 in
UV 7 de una escala de 12
Polen 3.90 de una escala de 12
Calidad del aire No disponible.
Flu Activity No disponible.
METAR KEPH 012053Z AUTO 20007KT 10SM CLR 24/04 A2998 RMK AO2 SLP147 T02440039 58011

More Conditions Fewer Conditions

Presión 29.97 pul
Visibilidad 10.0 Millas
Nubes Despejado
Índice de calor 77 ° F
Punto de rocío 47 ° F
Humedad 42%
Precipitaciones -999.00 pul
Espesor de la nieve 0 in
UV 7 de una escala de 12
Polen 3.90 de una escala de 12
Calidad del aire No disponible.
Flu Activity No disponible.
METAR KEPH 012053Z AUTO 20007KT 10SM CLR 24/04 A2998 RMK AO2 SLP147 T02440039 58011

More Conditions Fewer Conditions

10-Day Weather Forecast

Almanac

Astronomía

Sep. 01, 2014 Salida Puesta
Hora real 6:18 AM PDT 7:39 PM PDT
Crepúsculo civil 5:47 AM PDT 8:10 PM PDT
Crepúsculo náutico 5:08 AM PDT 8:48 PM PDT
Crepúsculo astronómico 4:27 AM PDT 9:29 PM PDT
Luna 1:36 PM PDT 11:17 PM PDT
Horas de luz 14h 23m
Horas de luz
13h 20m
Tomorrow will be 3m 16s shorter.
Creciente, 44% of the Moon is Illuminated
Hoy
Creciente
Sep 2
Cuarto creciente
Sep 8
Luna llena
Sep 15
Cuarto menguante
Sep 24
Nueva

Extremos de hoy

Máximos del estado Bajos del estado

Community

WunderPhotos

Upload Photos

1,749,407 ¡fotos cargadas!

WunderBlogs® & News

Nearby

Grosos de nieve

Estación Profundido Altura
Trough 0 in 5300 ft
Grouse Camp 0 in 5380 ft
Sasse Ridge 0 in 4200 ft
Stampede Pass 2 in 3860 ft
Meadows Pass 0 in 3500 ft

Actividad de terremotos

Ciudad Distance Mag. Tiempo y dato
No hay informes recientes de la actividad sísmica.
Magnitud mínima muestra es 2,5.

Temperaturas de aguas costeras

Lugar Temperatura
Sin partes meteorológicos de las estaciones

Estaciones meteorológicas cercanas